Terminal Aerodrome Forecast
Issued by NWS

Current Version | Previous Version | Text Only | Print | Product List | Glossary Off
Versions: 1 2 3 4 5 6 7 8 9 10 11 12 13 14 15 16 17 18 19 20 21 22 23 24 25 26 27 28

000
FTUS42 KILM 210542 CCA
TAFCRE
TAF COR
KCRE 210542Z 2106/2206 00000KT 1/4SM FG VV003
      TEMPO 2106/2110 VRB02KT 4SM BR SCT003 BKN035
     FM211400 16006KT 4SM -RA BR OVC007
     FM212200 20007KT 3SM -RA BR BKN003 OVC007
     FM220400 21008KT 1/2SM FG VV003=

USA.gov is the U.S. government's official web portal to all federal, state and local government web resources and services.